Accueil
METAR-TAF:

METAR-TAF

Aéroports :

Karâchi, Pakistan

Aéroport international Jinnah

latitude: 24-54N, longitude: 067-08E, altitude: 21 m

Observation

Le bulletin a été fait il y a 21 minutes, à 11:55 UTC
Vent 8 kt de ouest
Température 26°C
Humidité 7%
Pression 1014 hPa
Visibilité: 7000 m

METAR: OPKC 121155Z 26008KT 7000 NSC 26/M13 Q1014 NOSIG

Heure: 17:16 (12:16 UTC)

Prévision

Le bulletin a été fait il y a 2 heures et 16 minutes, à 10:00 UTC
Prévision valable du 12 à 12 UTC au 13 à 18 UTC
Vent 10 kt de nord/nord-ouest
Visibilité: 5000 m
brume sèche
Temporairement
du 13 à 00 UTC au 13 à 04 UTC
Vent 3 kt de direction variable
Visibilité: 1500 m
brume
A partir de 13 à 0600 UTC
Vent 5 kt de nord-ouest avec des rafales jusqu'à 15 kt
Visibilité: 5000 m
brume sèche

TAF: OPKC 121000Z 1212/1318 33010KT 5000 HZ NSC TEMPO 1300/1304 VRB03KT 1500 BR NSC FM130600 31005G15KT 5000 HZ NSC

Observations et prévisions météorologiques de plus de 4000 aéroports (messages METAR et TAF).

Les stations disponibles sont représentées par des disques jaunes et rouges sur la carte.

Passer la souris dessus pour voir le nom de la station.

Cliquer dessus pour voir les observations et prévisions météorologiques.

Pour changer de carte: cliquez sur les boutons verts avec une croix noire pour zoomer, sur le bouton vert avec un tiret pour effectuer un zoom arrière, ou sur les flèches vertes pour les cartes adjacentes.


METAR-TAF: